createdAt,value
2023-08-10T00:00:47.501Z,27.34
2023-08-10T00:03:14.812Z,27.35
2023-08-10T00:05:41.978Z,27.29
2023-08-10T00:08:09.102Z,27.29
2023-08-10T00:10:36.217Z,27.32
2023-08-10T00:13:03.679Z,27.28
2023-08-10T00:15:32.980Z,27.19
2023-08-10T00:18:00.567Z,27.15
2023-08-10T00:20:27.997Z,27.13
2023-08-10T00:22:55.531Z,27.14
2023-08-10T00:25:23.121Z,27.12
2023-08-10T00:27:50.635Z,27.13
2023-08-10T00:30:18.646Z,27.01
2023-08-10T00:32:47.802Z,26.97
2023-08-10T00:35:15.520Z,26.95
2023-08-10T00:37:43.123Z,26.94
2023-08-10T00:40:11.600Z,26.97
2023-08-10T00:42:39.306Z,26.96
2023-08-10T00:45:08.000Z,26.88
2023-08-10T00:47:35.833Z,26.78
2023-08-10T00:50:05.921Z,26.71
2023-08-10T00:52:33.919Z,26.70
2023-08-10T00:55:01.928Z,26.62
2023-08-10T00:57:30.240Z,26.57
2023-08-10T00:59:57.841Z,26.51
2023-08-10T01:02:26.095Z,26.44
2023-08-10T01:04:53.611Z,26.48
2023-08-10T01:07:35.685Z,26.49
2023-08-10T01:10:15.273Z,26.39
2023-08-10T01:12:49.667Z,26.35
2023-08-10T01:15:24.675Z,26.27
2023-08-10T01:17:56.766Z,26.30
2023-08-10T01:20:26.719Z,26.27
2023-08-10T01:23:11.359Z,26.22
2023-08-10T01:25:43.450Z,26.18
2023-08-10T01:28:12.019Z,26.16
2023-08-10T01:30:40.018Z,26.12
2023-08-10T01:33:07.682Z,26.10
2023-08-10T01:35:35.215Z,26.19
2023-08-10T01:38:02.891Z,26.14
2023-08-10T01:40:30.400Z,26.23
2023-08-10T01:42:59.523Z,26.19
2023-08-10T01:45:27.039Z,26.11
2023-08-10T01:47:59.004Z,26.10
2023-08-10T01:50:30.973Z,26.15
2023-08-10T01:53:05.438Z,26.12
2023-08-10T01:55:33.522Z,26.12
2023-08-10T01:58:03.443Z,26.09
2023-08-10T02:00:31.279Z,26.10
2023-08-10T02:02:58.985Z,26.17
2023-08-10T02:05:26.804Z,26.06
2023-08-10T02:07:54.322Z,26.01
2023-08-10T02:10:21.945Z,26.02
2023-08-10T02:12:49.361Z,25.97
2023-08-10T02:15:18.401Z,25.99
2023-08-10T02:17:46.016Z,25.93
2023-08-10T02:20:14.490Z,25.96
2023-08-10T02:22:43.933Z,25.91
2023-08-10T02:25:11.601Z,25.96
2023-08-10T02:27:40.329Z,25.91
2023-08-10T02:30:09.921Z,25.89
2023-08-10T02:32:39.274Z,25.89
2023-08-10T02:35:07.533Z,25.90
2023-08-10T02:37:35.280Z,25.83
2023-08-10T02:40:03.521Z,25.83
2023-08-10T02:42:30.960Z,25.77
2023-08-10T02:44:58.645Z,25.73
2023-08-10T02:47:26.510Z,25.71
2023-08-10T02:49:55.547Z,25.73
2023-08-10T02:52:23.123Z,25.70
2023-08-10T02:54:50.960Z,25.61
2023-08-10T02:57:18.504Z,25.56
2023-08-10T02:59:46.089Z,25.55
2023-08-10T03:05:06.591Z,25.52
2023-08-10T03:07:33.824Z,25.45
2023-08-10T03:10:00.928Z,25.48
2023-08-10T03:12:28.115Z,25.49
2023-08-10T03:14:55.175Z,25.46
2023-08-10T03:17:22.382Z,25.45
2023-08-10T03:19:49.535Z,25.52
2023-08-10T03:22:18.185Z,25.53
2023-08-10T03:24:45.175Z,25.49
2023-08-10T03:27:12.357Z,25.42
2023-08-10T03:29:39.428Z,25.42
2023-08-10T03:32:06.960Z,25.41
2023-08-10T03:34:34.335Z,25.39
2023-08-10T03:37:03.034Z,25.42
2023-08-10T03:39:31.654Z,25.42
2023-08-10T03:41:58.755Z,25.38
2023-08-10T03:44:25.893Z,25.39
2023-08-10T03:46:52.895Z,25.37
2023-08-10T03:49:20.098Z,25.39
2023-08-10T03:51:47.142Z,25.43
2023-08-10T03:54:14.213Z,25.46
2023-08-10T03:56:42.736Z,25.33
2023-08-10T03:59:09.855Z,25.28
2023-08-10T04:01:37.078Z,25.24
2023-08-10T04:04:05.431Z,25.25
2023-08-10T04:06:32.737Z,25.23
2023-08-10T04:08:59.774Z,25.14
2023-08-10T04:11:26.916Z,25.05
2023-08-10T04:13:55.394Z,25.03
2023-08-10T04:16:22.590Z,25.01
2023-08-10T04:18:49.773Z,24.96
2023-08-10T04:21:16.918Z,25.02
2023-08-10T04:23:43.954Z,25.05
2023-08-10T04:26:11.381Z,25.08
2023-08-10T04:28:38.437Z,25.11
2023-08-10T04:31:07.519Z,25.15
2023-08-10T04:33:35.010Z,25.19
2023-08-10T04:36:02.608Z,25.19
2023-08-10T04:38:30.131Z,25.17
2023-08-10T04:40:57.657Z,25.14
2023-08-10T04:43:25.253Z,25.16
2023-08-10T04:45:52.656Z,25.10
2023-08-10T04:48:21.987Z,25.05
2023-08-10T04:50:49.570Z,24.97
2023-08-10T04:53:17.012Z,24.94
2023-08-10T04:55:44.539Z,25.03
2023-08-10T04:58:12.059Z,25.04
2023-08-10T05:00:40.006Z,25.09
2023-08-10T05:03:07.669Z,25.01
2023-08-10T05:05:39.898Z,25.08
2023-08-10T05:08:07.896Z,24.94
2023-08-10T05:10:35.418Z,25.00
2023-08-10T05:13:02.865Z,25.06
2023-08-10T05:15:30.448Z,25.17
2023-08-10T05:17:58.095Z,25.23
2023-08-10T05:20:25.493Z,25.25
2023-08-10T05:22:54.691Z,25.23
2023-08-10T05:25:22.212Z,25.27
2023-08-10T05:27:49.657Z,25.25
2023-08-10T05:30:17.335Z,25.39
2023-08-10T05:32:45.439Z,25.38
2023-08-10T05:35:13.893Z,25.29
2023-08-10T05:37:41.494Z,25.39
2023-08-10T05:40:12.162Z,25.55
2023-08-10T05:42:41.344Z,25.67
2023-08-10T05:45:10.549Z,25.82
2023-08-10T05:47:38.048Z,25.93
2023-08-10T05:50:06.857Z,25.93
2023-08-10T05:52:34.453Z,25.95
2023-08-10T05:55:01.974Z,26.04
2023-08-10T05:57:31.091Z,26.28
2023-08-10T05:59:58.693Z,26.38
2023-08-10T06:02:26.131Z,26.37
2023-08-10T06:04:53.729Z,26.53
2023-08-10T06:07:21.332Z,26.54
2023-08-10T06:09:48.860Z,26.59
2023-08-10T06:12:16.375Z,27.04
2023-08-10T06:14:45.492Z,27.26
2023-08-10T06:17:13.098Z,27.21
2023-08-10T06:19:40.615Z,27.40
2023-08-10T06:22:08.331Z,27.67
2023-08-10T06:24:35.899Z,27.62
2023-08-10T06:27:03.572Z,27.50
2023-08-10T06:29:31.094Z,27.62
2023-08-10T06:32:00.132Z,27.94
2023-08-10T06:34:27.733Z,28.34
2023-08-10T06:36:55.331Z,28.41
2023-08-10T06:39:22.773Z,28.42
2023-08-10T06:41:50.454Z,28.51
2023-08-10T06:44:17.806Z,28.64
2023-08-10T06:46:45.048Z,28.51
2023-08-10T06:49:14.063Z,28.56
2023-08-10T06:51:41.570Z,28.25
2023-08-10T06:54:09.081Z,29.11
2023-08-10T06:56:36.449Z,29.36
2023-08-10T07:01:34.613Z,29.92
2023-08-10T07:04:02.127Z,30.25
2023-08-10T07:06:31.258Z,30.57
2023-08-10T07:08:58.850Z,29.53
2023-08-10T07:11:26.222Z,29.67
2023-08-10T07:13:54.074Z,30.45
2023-08-10T07:16:21.908Z,30.93
2023-08-10T07:18:49.411Z,30.86
2023-08-10T07:21:16.929Z,31.37
2023-08-10T07:23:45.994Z,31.21
2023-08-10T07:26:13.587Z,31.14
2023-08-10T07:28:41.101Z,31.63
2023-08-10T07:31:08.583Z,31.42
2023-08-10T07:33:36.215Z,30.98
2023-08-10T07:36:03.887Z,31.39
2023-08-10T07:38:31.905Z,31.68
2023-08-10T07:41:01.089Z,32.02
2023-08-10T07:43:28.620Z,32.29
2023-08-10T07:45:56.053Z,32.28
2023-08-10T07:48:23.571Z,32.50
2023-08-10T07:50:51.412Z,32.20
2023-08-10T07:53:18.851Z,31.96
2023-08-10T07:55:46.368Z,31.54
2023-08-10T07:58:15.411Z,32.08
2023-08-10T08:00:43.167Z,31.82
2023-08-10T08:03:10.799Z,32.13
2023-08-10T08:05:38.376Z,31.11
2023-08-10T08:08:07.330Z,31.30
2023-08-10T08:10:36.752Z,31.67
2023-08-10T08:13:05.970Z,31.67
2023-08-10T08:15:35.583Z,32.06
2023-08-10T08:18:41.650Z,32.09
2023-08-10T08:21:10.774Z,32.10
2023-08-10T08:23:38.295Z,31.60
2023-08-10T08:26:05.907Z,31.86
2023-08-10T08:28:34.282Z,32.06
2023-08-10T08:31:03.898Z,32.49
2023-08-10T08:33:31.863Z,32.27
2023-08-10T08:35:59.332Z,32.12
2023-08-10T08:38:27.731Z,32.21
2023-08-10T08:40:55.807Z,32.55
2023-08-10T08:43:24.136Z,32.00
2023-08-10T08:45:52.158Z,32.14
2023-08-10T08:48:21.251Z,32.20
2023-08-10T08:50:48.874Z,32.45
2023-08-10T08:53:17.091Z,32.10
2023-08-10T08:55:44.933Z,32.29
2023-08-10T08:58:12.452Z,31.58
2023-08-10T09:00:41.330Z,32.25
2023-08-10T09:03:08.877Z,31.93
2023-08-10T09:05:38.143Z,32.35
2023-08-10T09:08:05.889Z,32.58
2023-08-10T09:10:33.915Z,32.51
2023-08-10T09:13:11.971Z,32.54
2023-08-10T09:15:39.750Z,32.91
2023-08-10T09:18:07.706Z,32.72
2023-08-10T09:20:35.438Z,32.52
2023-08-10T09:23:05.254Z,33.19
2023-08-10T09:25:37.013Z,33.13
2023-08-10T09:28:11.015Z,33.20
2023-08-10T09:30:38.764Z,32.66
2023-08-10T09:33:06.666Z,33.29
2023-08-10T09:35:34.136Z,33.06
2023-08-10T09:38:04.295Z,33.16
2023-08-10T09:40:32.303Z,32.48
2023-08-10T09:42:59.824Z,32.47
2023-08-10T09:45:27.572Z,33.02
2023-08-10T09:47:55.377Z,33.19
2023-08-10T09:50:23.005Z,33.56
2023-08-10T09:52:50.545Z,33.77
2023-08-10T09:55:20.137Z,33.44
2023-08-10T09:57:49.974Z,33.62
2023-08-10T10:00:18.370Z,33.45
2023-08-10T10:02:46.226Z,33.36
2023-08-10T10:05:22.370Z,33.29
2023-08-10T10:07:59.176Z,33.26
2023-08-10T10:10:28.934Z,33.19
2023-08-10T10:12:57.262Z,32.93
2023-08-10T10:15:26.453Z,33.07
2023-08-10T10:17:54.736Z,33.53
2023-08-10T10:20:23.004Z,33.51
2023-08-10T10:22:50.610Z,33.48
2023-08-10T10:25:21.308Z,32.86
2023-08-10T10:27:51.833Z,33.34
2023-08-10T10:30:20.770Z,32.96
2023-08-10T10:32:50.582Z,33.11
2023-08-10T10:35:23.200Z,32.72
2023-08-10T10:37:58.455Z,33.26
2023-08-10T10:40:27.431Z,32.84
2023-08-10T10:43:09.846Z,32.56
2023-08-10T10:45:39.661Z,32.49
2023-08-10T10:48:07.522Z,32.70
2023-08-10T10:50:36.084Z,31.80
2023-08-10T10:53:05.974Z,32.54
2023-08-10T10:55:41.521Z,32.52
2023-08-10T10:58:15.438Z,31.65
2023-08-10T11:00:47.904Z,32.02
2023-08-10T11:03:17.362Z,31.58
2023-08-10T11:05:44.693Z,31.92
2023-08-10T11:08:12.155Z,31.69
2023-08-10T11:10:40.692Z,31.95
2023-08-10T11:13:10.697Z,32.17
2023-08-10T11:15:38.946Z,32.43
2023-08-10T11:18:12.095Z,32.91
2023-08-10T11:20:44.140Z,32.85
2023-08-10T11:23:11.810Z,32.99
2023-08-10T11:25:48.532Z,32.85
2023-08-10T11:28:18.775Z,32.64
2023-08-10T11:30:46.848Z,32.84
2023-08-10T11:35:49.732Z,32.77
2023-08-10T11:38:17.464Z,32.69
2023-08-10T11:40:45.009Z,32.80
2023-08-10T11:43:14.851Z,32.06
2023-08-10T11:45:44.623Z,32.81
2023-08-10T11:48:14.174Z,32.06
2023-08-10T11:50:41.733Z,32.11
2023-08-10T11:53:11.419Z,32.33
2023-08-10T11:55:46.864Z,32.28
2023-08-10T11:58:16.943Z,32.18
2023-08-10T12:00:51.074Z,31.76
2023-08-10T12:03:24.515Z,32.31
2023-08-10T12:05:55.768Z,32.27
2023-08-10T12:08:27.015Z,32.24
2023-08-10T12:11:02.147Z,32.38
2023-08-10T12:13:30.290Z,32.08
2023-08-10T12:16:03.378Z,32.63
2023-08-10T12:18:31.004Z,32.50
2023-08-10T12:20:58.688Z,32.18
2023-08-10T12:23:26.218Z,32.73
2023-08-10T12:25:53.732Z,32.84
2023-08-10T12:28:22.403Z,32.89
2023-08-10T12:30:51.410Z,32.81
2023-08-10T12:33:20.464Z,33.18
2023-08-10T12:35:48.053Z,33.31
2023-08-10T12:38:15.574Z,32.94
2023-08-10T12:40:43.089Z,32.91
2023-08-10T12:43:10.689Z,32.89
2023-08-10T12:45:38.325Z,33.03
2023-08-10T12:48:07.060Z,32.84
2023-08-10T12:50:36.145Z,32.79
2023-08-10T12:53:03.892Z,33.02
2023-08-10T12:55:32.558Z,32.95
2023-08-10T12:58:00.212Z,32.63
2023-08-10T13:00:27.731Z,32.86
2023-08-10T13:02:55.545Z,33.10
2023-08-10T13:05:22.911Z,32.36
2023-08-10T13:07:52.052Z,32.68
2023-08-10T13:10:19.585Z,32.41
2023-08-10T13:12:47.110Z,32.67
2023-08-10T13:15:14.620Z,32.92
2023-08-10T13:17:42.307Z,33.04
2023-08-10T13:20:11.014Z,33.04
2023-08-10T13:22:38.937Z,32.71
2023-08-10T13:25:08.855Z,32.65
2023-08-10T13:27:36.295Z,32.51
2023-08-10T13:30:04.297Z,32.52
2023-08-10T13:32:32.060Z,32.86
2023-08-10T13:34:59.496Z,32.95
2023-08-10T13:37:27.011Z,33.20
2023-08-10T13:39:54.609Z,33.29
2023-08-10T13:42:23.658Z,33.29
2023-08-10T13:44:51.174Z,33.17
2023-08-10T13:47:18.628Z,32.56
2023-08-10T13:49:54.862Z,32.89
2023-08-10T13:52:24.536Z,32.62
2023-08-10T13:54:52.435Z,32.77
2023-08-10T13:57:20.425Z,33.00
2023-08-10T13:59:49.693Z,32.88
2023-08-10T14:02:17.626Z,32.19
2023-08-10T14:04:45.190Z,32.55
2023-08-10T14:07:12.864Z,32.83
2023-08-10T14:09:40.452Z,33.13
2023-08-10T14:12:07.975Z,33.13
2023-08-10T14:14:35.742Z,32.77
2023-08-10T14:17:05.107Z,32.96
2023-08-10T14:19:32.943Z,33.06
2023-08-10T14:22:00.612Z,32.71
2023-08-10T14:24:27.589Z,32.23
2023-08-10T14:26:55.081Z,32.10
2023-08-10T14:29:22.081Z,32.47
2023-08-10T14:31:49.813Z,32.34
2023-08-10T14:34:18.772Z,32.06
2023-08-10T14:36:45.972Z,32.50
2023-08-10T14:39:13.506Z,32.72
2023-08-10T14:41:40.852Z,32.26
2023-08-10T14:44:08.385Z,32.19
2023-08-10T14:46:36.049Z,32.01
2023-08-10T14:49:03.571Z,32.06
2023-08-10T14:51:32.548Z,32.44
2023-08-10T14:54:00.055Z,32.31
2023-08-10T14:56:27.511Z,32.65
2023-08-10T14:58:55.011Z,32.76
2023-08-10T15:01:22.533Z,32.79
2023-08-10T15:03:49.979Z,32.97
2023-08-10T15:06:17.649Z,33.06
2023-08-10T15:08:46.775Z,33.20
2023-08-10T15:11:14.234Z,33.25
2023-08-10T15:13:50.549Z,33.41
2023-08-10T15:16:18.152Z,33.17
2023-08-10T15:18:45.492Z,32.75
2023-08-10T15:21:13.012Z,33.12
2023-08-10T15:23:42.793Z,33.31
2023-08-10T15:26:11.261Z,33.22
2023-08-10T15:28:38.985Z,33.32
2023-08-10T15:31:10.965Z,33.40
2023-08-10T15:33:39.222Z,33.40
2023-08-10T15:36:07.751Z,33.36
2023-08-10T15:38:35.670Z,33.30
2023-08-10T15:41:03.974Z,33.38
2023-08-10T15:43:31.807Z,33.44
2023-08-10T15:45:59.596Z,33.46
2023-08-10T15:48:28.771Z,33.27
2023-08-10T15:50:56.300Z,33.36
2023-08-10T15:53:23.818Z,33.24
2023-08-10T15:55:51.413Z,33.00
2023-08-10T15:58:18.637Z,32.62
2023-08-10T16:00:46.247Z,33.18
2023-08-10T16:03:13.797Z,33.37
2023-08-10T16:05:43.089Z,33.41
2023-08-10T16:08:12.531Z,32.91
2023-08-10T16:10:40.213Z,33.28
2023-08-10T16:13:07.733Z,33.42
2023-08-10T16:15:35.179Z,33.45
2023-08-10T16:18:02.799Z,33.45
2023-08-10T16:20:30.309Z,33.41
2023-08-10T16:22:59.256Z,33.41
2023-08-10T16:25:26.943Z,33.31
2023-08-10T16:27:54.295Z,33.31
2023-08-10T16:30:21.901Z,33.28
2023-08-10T16:32:49.453Z,33.05
2023-08-10T16:35:17.183Z,32.86
2023-08-10T16:37:44.938Z,32.95
2023-08-10T16:40:14.304Z,32.92
2023-08-10T16:42:41.735Z,32.84
2023-08-10T16:45:10.376Z,32.73
2023-08-10T16:47:37.946Z,32.74
2023-08-10T16:50:06.689Z,32.60
2023-08-10T16:52:34.149Z,32.63
2023-08-10T16:55:01.658Z,32.58
2023-08-10T16:57:30.710Z,32.59
2023-08-10T16:59:58.302Z,32.56
2023-08-10T17:02:25.964Z,32.56
2023-08-10T17:04:53.585Z,32.53
2023-08-10T17:07:21.179Z,32.48
2023-08-10T17:09:48.617Z,32.49
2023-08-10T17:12:16.145Z,32.46
2023-08-10T17:14:45.103Z,32.36
2023-08-10T17:17:12.542Z,32.40
2023-08-10T17:19:40.485Z,32.32
2023-08-10T17:22:08.276Z,32.30
2023-08-10T17:24:36.615Z,32.34
2023-08-10T17:27:04.933Z,32.35
2023-08-10T17:29:33.116Z,32.30
2023-08-10T17:32:02.695Z,32.33
2023-08-10T17:34:30.131Z,32.35
2023-08-10T17:36:57.585Z,32.33
2023-08-10T17:39:25.255Z,32.35
2023-08-10T17:41:52.695Z,32.28
2023-08-10T17:44:20.295Z,32.19
2023-08-10T17:46:47.868Z,32.16
2023-08-10T17:49:17.100Z,32.17
2023-08-10T17:51:44.533Z,32.10
2023-08-10T17:54:12.064Z,31.93
2023-08-10T17:56:39.663Z,31.75
2023-08-10T17:59:07.412Z,31.62
2023-08-10T18:01:36.453Z,31.61
2023-08-10T18:04:04.853Z,31.45
2023-08-10T18:06:33.973Z,31.33
2023-08-10T18:09:01.500Z,31.21
2023-08-10T18:11:29.012Z,31.08
2023-08-10T18:13:56.612Z,31.01
2023-08-10T18:16:24.106Z,30.95
2023-08-10T18:18:51.734Z,30.86
2023-08-10T18:21:19.188Z,30.77
2023-08-10T18:23:48.225Z,30.75
2023-08-10T18:26:15.740Z,30.68
2023-08-10T18:28:43.256Z,30.71
2023-08-10T18:31:11.218Z,30.64
2023-08-10T18:33:38.781Z,30.59
2023-08-10T18:36:07.660Z,30.57
2023-08-10T18:38:35.173Z,30.52
2023-08-10T18:41:04.294Z,30.50
2023-08-10T18:43:32.292Z,30.47
2023-08-10T18:46:01.841Z,30.44
2023-08-10T18:48:29.413Z,30.44
2023-08-10T18:50:59.173Z,30.41
2023-08-10T18:53:27.009Z,30.36
2023-08-10T18:55:54.690Z,30.31
2023-08-10T18:58:24.158Z,30.26
2023-08-10T19:00:55.850Z,30.25
2023-08-10T19:03:23.659Z,30.27
2023-08-10T19:05:51.109Z,30.23
2023-08-10T19:08:18.853Z,30.17
2023-08-10T19:10:46.372Z,30.10
2023-08-10T19:13:13.725Z,30.07
2023-08-10T19:15:42.695Z,30.09
2023-08-10T19:18:10.255Z,30.11
2023-08-10T19:20:37.651Z,30.10
2023-08-10T19:23:05.649Z,30.11
2023-08-10T19:25:33.252Z,30.18
2023-08-10T19:28:00.693Z,30.23
2023-08-10T19:30:28.453Z,30.22
2023-08-10T19:32:57.623Z,30.22
2023-08-10T19:35:25.090Z,30.25
2023-08-10T19:37:52.451Z,30.24
2023-08-10T19:40:19.974Z,30.21
2023-08-10T19:42:47.421Z,30.19
2023-08-10T19:45:15.103Z,30.09
2023-08-10T19:47:42.563Z,30.06
2023-08-10T19:50:11.739Z,30.03
2023-08-10T19:52:40.219Z,30.01
2023-08-10T19:55:09.433Z,29.98
2023-08-10T19:57:36.937Z,29.89
2023-08-10T20:00:05.337Z,29.84
2023-08-10T20:02:32.878Z,29.88
2023-08-10T20:05:00.392Z,29.96
2023-08-10T20:07:29.498Z,29.84
2023-08-10T20:09:57.022Z,29.80
2023-08-10T20:12:24.374Z,29.80
2023-08-10T20:14:51.990Z,29.77
2023-08-10T20:17:19.575Z,29.82
2023-08-10T20:19:47.013Z,29.83
2023-08-10T20:22:14.544Z,29.79
2023-08-10T20:24:43.896Z,29.72
2023-08-10T20:27:14.063Z,29.62
2023-08-10T20:29:41.977Z,29.55
2023-08-10T20:32:09.898Z,29.48
2023-08-10T20:34:37.493Z,29.42
2023-08-10T20:37:05.493Z,29.41
2023-08-10T20:39:32.939Z,29.45
2023-08-10T20:42:02.212Z,29.45
2023-08-10T20:44:29.733Z,29.40
2023-08-10T20:46:57.341Z,29.31
2023-08-10T20:49:25.092Z,29.26
2023-08-10T20:51:52.530Z,29.29
2023-08-10T20:54:20.055Z,29.29
2023-08-10T20:56:47.487Z,29.24
2023-08-10T20:59:16.629Z,29.21
2023-08-10T21:01:44.054Z,29.16
2023-08-10T21:04:11.484Z,29.04
2023-08-10T21:06:39.100Z,28.99
2023-08-10T21:09:06.781Z,29.06
2023-08-10T21:11:34.136Z,29.01
2023-08-10T21:14:01.651Z,29.14
2023-08-10T21:16:30.772Z,29.15
2023-08-10T21:18:58.291Z,29.09
2023-08-10T21:21:25.910Z,29.16
2023-08-10T21:23:53.343Z,29.16
2023-08-10T21:26:21.012Z,29.12
2023-08-10T21:28:48.532Z,29.06
2023-08-10T21:31:16.157Z,29.07
2023-08-10T21:33:45.415Z,29.07
2023-08-10T21:36:13.013Z,29.01
2023-08-10T21:38:39.978Z,28.99
2023-08-10T21:41:07.032Z,28.99
2023-08-10T21:43:34.467Z,29.02
2023-08-10T21:46:02.074Z,29.00
2023-08-10T21:48:29.573Z,28.77
2023-08-10T21:50:58.697Z,28.94
2023-08-10T21:53:26.213Z,28.96
2023-08-10T21:55:53.675Z,28.95
2023-08-10T21:58:21.200Z,28.85
2023-08-10T22:00:48.707Z,28.85
2023-08-10T22:03:16.404Z,28.84
2023-08-10T22:05:43.898Z,28.76
2023-08-10T22:08:13.096Z,28.72
2023-08-10T22:10:40.536Z,28.67
2023-08-10T22:13:08.139Z,28.57
2023-08-10T22:15:35.655Z,28.53
2023-08-10T22:18:03.253Z,28.49
2023-08-10T22:20:30.935Z,28.46
2023-08-10T22:23:04.895Z,28.40
2023-08-10T22:25:34.861Z,28.38
2023-08-10T22:28:03.582Z,28.38
2023-08-10T22:30:31.032Z,28.36
2023-08-10T22:32:58.885Z,28.32
2023-08-10T22:35:26.620Z,28.28
2023-08-10T22:37:54.142Z,28.23
2023-08-10T22:40:21.824Z,28.24
2023-08-10T22:42:50.856Z,28.26
2023-08-10T22:45:18.387Z,28.32
2023-08-10T22:47:46.083Z,28.26
2023-08-10T22:50:13.739Z,28.20
2023-08-10T22:52:41.897Z,28.21
2023-08-10T22:55:10.622Z,28.17
2023-08-10T22:57:39.086Z,28.23
2023-08-10T23:00:09.113Z,28.27
2023-08-10T23:02:36.657Z,28.28
2023-08-10T23:05:04.628Z,28.30
2023-08-10T23:07:32.158Z,28.30
2023-08-10T23:09:59.659Z,28.29
2023-08-10T23:12:27.669Z,28.28
2023-08-10T23:14:55.571Z,28.30
2023-08-10T23:17:24.691Z,28.28
2023-08-10T23:19:52.215Z,28.29
2023-08-10T23:22:19.651Z,28.30
2023-08-10T23:24:47.169Z,28.35
2023-08-10T23:27:14.776Z,28.33
2023-08-10T23:29:42.133Z,28.40
2023-08-10T23:32:10.375Z,28.42
2023-08-10T23:34:39.581Z,28.31
2023-08-10T23:37:07.320Z,28.33
2023-08-10T23:39:35.014Z,28.28
2023-08-10T23:42:02.455Z,28.29
2023-08-10T23:44:29.819Z,28.32
2023-08-10T23:47:03.445Z,28.42
2023-08-10T23:49:40.131Z,28.37
2023-08-10T23:52:08.341Z,28.26
2023-08-10T23:54:36.053Z,28.19
2023-08-10T23:57:03.811Z,28.20
2023-08-10T23:59:31.413Z,28.18
